createdAt,value
2023-05-16T00:02:24.386Z,27.90
2023-05-16T00:04:56.338Z,27.90
2023-05-16T00:07:26.736Z,27.90
2023-05-16T00:09:56.455Z,28.00
2023-05-16T00:12:26.948Z,28.10
2023-05-16T00:14:57.603Z,28.10
2023-05-16T00:17:30.797Z,28.10
2023-05-16T00:20:01.736Z,28.10
2023-05-16T00:22:31.765Z,28.10
2023-05-16T00:25:02.972Z,28.20
2023-05-16T00:27:33.410Z,28.20
2023-05-16T00:30:08.487Z,28.20
2023-05-16T00:32:39.780Z,28.20
2023-05-16T00:35:12.987Z,28.30
2023-05-16T00:37:45.452Z,28.40
2023-05-16T00:40:16.156Z,28.40
2023-05-16T00:42:46.444Z,28.50
2023-05-16T00:45:16.589Z,28.60
2023-05-16T00:47:47.094Z,28.60
2023-05-16T00:50:18.119Z,28.60
2023-05-16T00:52:48.655Z,28.70
2023-05-16T00:55:19.099Z,28.80
2023-05-16T00:57:49.747Z,28.90
2023-05-16T01:00:21.761Z,28.90
2023-05-16T01:02:55.336Z,29.00
2023-05-16T01:05:27.162Z,29.10
2023-05-16T01:07:57.639Z,29.20
2023-05-16T01:10:33.885Z,29.20
2023-05-16T01:13:27.022Z,29.30
2023-05-16T01:16:11.133Z,29.40
2023-05-16T01:18:54.155Z,29.50
2023-05-16T01:21:59.565Z,29.60
2023-05-16T01:25:09.850Z,29.70
2023-05-16T01:27:41.180Z,29.90
2023-05-16T01:30:19.928Z,29.90
2023-05-16T01:32:50.428Z,29.90
2023-05-16T01:35:21.217Z,30.00
2023-05-16T01:38:07.762Z,30.10
2023-05-16T01:41:06.695Z,30.10
2023-05-16T01:43:44.046Z,30.20
2023-05-16T01:46:23.206Z,30.30
2023-05-16T01:49:19.936Z,30.30
2023-05-16T01:52:13.734Z,30.50
2023-05-16T01:54:48.041Z,30.60
2023-05-16T01:57:19.727Z,30.70
2023-05-16T01:59:50.250Z,30.90
2023-05-16T02:02:23.817Z,30.90
2023-05-16T02:04:54.360Z,30.90
2023-05-16T02:07:24.794Z,31.00
2023-05-16T02:09:55.045Z,31.10
2023-05-16T02:12:25.517Z,31.20
2023-05-16T02:14:55.763Z,31.20
2023-05-16T02:17:25.781Z,31.30
2023-05-16T02:19:56.310Z,31.30
2023-05-16T02:22:26.474Z,31.40
2023-05-16T02:24:56.585Z,31.50
2023-05-16T02:27:26.807Z,31.50
2023-05-16T02:29:57.460Z,31.60
2023-05-16T02:32:28.224Z,31.60
2023-05-16T02:34:58.351Z,31.70
2023-05-16T02:37:28.386Z,31.90
2023-05-16T02:40:00.053Z,31.90
2023-05-16T02:42:31.179Z,32.10
2023-05-16T02:45:01.350Z,32.10
2023-05-16T02:47:31.166Z,32.20
2023-05-16T02:50:02.973Z,32.20
2023-05-16T02:52:33.270Z,32.30
2023-05-16T02:57:36.520Z,32.50
2023-05-16T03:00:08.195Z,32.60
2023-05-16T03:02:38.879Z,32.60
2023-05-16T03:05:11.493Z,32.60
2023-05-16T03:07:43.053Z,32.80
2023-05-16T03:10:13.530Z,32.90
2023-05-16T03:12:43.559Z,32.80
2023-05-16T03:15:15.865Z,33.00
2023-05-16T03:17:46.226Z,33.10
2023-05-16T03:20:17.462Z,33.30
2023-05-16T03:22:47.950Z,33.40
2023-05-16T03:25:18.154Z,33.40
2023-05-16T03:27:48.695Z,33.40
2023-05-16T03:30:22.760Z,33.50
2023-05-16T03:32:53.442Z,33.50
2023-05-16T03:35:23.767Z,33.50
2023-05-16T03:37:54.314Z,33.60
2023-05-16T03:40:31.008Z,33.80
2023-05-16T03:43:01.147Z,34.00
2023-05-16T03:45:32.906Z,34.10
2023-05-16T03:48:03.246Z,34.10
2023-05-16T03:50:33.146Z,34.20
2023-05-16T03:53:03.149Z,34.30
2023-05-16T03:55:32.889Z,34.20
2023-05-16T03:58:02.954Z,34.10
2023-05-16T04:00:32.857Z,34.20
2023-05-16T04:03:02.734Z,34.50
2023-05-16T04:05:32.773Z,34.60
2023-05-16T04:08:02.922Z,34.50
2023-05-16T04:10:33.242Z,34.60
2023-05-16T04:13:03.256Z,34.70
2023-05-16T04:15:33.035Z,34.70
2023-05-16T04:18:03.364Z,34.50
2023-05-16T04:20:33.318Z,34.60
2023-05-16T04:23:03.361Z,34.50
2023-05-16T04:25:33.253Z,34.60
2023-05-16T04:28:03.356Z,34.60
2023-05-16T04:30:33.271Z,34.50
2023-05-16T04:33:03.325Z,34.50
2023-05-16T04:35:33.222Z,34.70
2023-05-16T04:38:03.500Z,34.80
2023-05-16T04:40:33.506Z,34.90
2023-05-16T04:43:03.497Z,34.80
2023-05-16T04:45:33.861Z,35.00
2023-05-16T04:48:05.577Z,34.90
2023-05-16T04:50:35.376Z,34.90
2023-05-16T04:53:05.373Z,34.80
2023-05-16T04:55:35.164Z,35.10
2023-05-16T04:58:05.478Z,35.10
2023-05-16T05:00:35.455Z,34.90
2023-05-16T05:03:06.076Z,35.30
2023-05-16T05:05:36.257Z,35.20
2023-05-16T05:08:06.210Z,35.20
2023-05-16T05:10:36.259Z,35.20
2023-05-16T05:13:06.054Z,35.30
2023-05-16T05:15:35.961Z,35.50
2023-05-16T05:18:06.074Z,35.40
2023-05-16T05:20:36.153Z,35.60
2023-05-16T05:23:06.064Z,35.50
2023-05-16T05:25:37.949Z,35.50
2023-05-16T05:28:08.359Z,35.70
2023-05-16T05:30:39.236Z,35.50
2023-05-16T05:33:10.496Z,35.60
2023-05-16T05:35:40.335Z,35.70
2023-05-16T05:38:10.248Z,35.80
2023-05-16T05:40:39.998Z,35.90
2023-05-16T05:43:10.435Z,35.90
2023-05-16T05:45:40.345Z,36.00
2023-05-16T05:48:12.397Z,36.00
2023-05-16T05:50:42.989Z,36.20
2023-05-16T05:53:13.474Z,35.90
2023-05-16T05:55:43.829Z,36.10
2023-05-16T05:58:14.272Z,36.20
2023-05-16T06:00:44.370Z,35.90
2023-05-16T06:03:16.171Z,35.90
2023-05-16T06:05:46.859Z,36.10
2023-05-16T06:08:16.602Z,36.00
2023-05-16T06:10:49.963Z,36.30
2023-05-16T06:13:20.199Z,36.50
2023-05-16T06:15:54.630Z,36.40
2023-05-16T06:18:24.776Z,36.60
2023-05-16T06:20:55.817Z,36.40
2023-05-16T06:23:25.945Z,36.50
2023-05-16T06:25:56.119Z,36.20
2023-05-16T06:28:26.932Z,36.00
2023-05-16T06:30:57.288Z,36.30
2023-05-16T06:33:27.516Z,36.60
2023-05-16T06:35:57.377Z,36.70
2023-05-16T06:38:27.400Z,36.30
2023-05-16T06:40:57.245Z,36.60
2023-05-16T06:43:27.263Z,36.20
2023-05-16T06:45:57.121Z,36.40
2023-05-16T06:48:27.661Z,36.70
2023-05-16T06:50:57.614Z,36.70
2023-05-16T06:53:27.943Z,36.70
2023-05-16T06:55:58.065Z,37.00
2023-05-16T06:58:29.336Z,36.80
2023-05-16T07:00:59.680Z,36.70
2023-05-16T07:03:31.472Z,36.50
2023-05-16T07:06:01.831Z,36.90
2023-05-16T07:08:32.537Z,37.20
2023-05-16T07:11:02.851Z,37.00
2023-05-16T07:13:35.738Z,37.10
2023-05-16T07:16:06.801Z,37.10
2023-05-16T07:18:36.810Z,36.90
2023-05-16T07:21:07.417Z,37.00
2023-05-16T07:23:37.336Z,37.20
2023-05-16T07:26:07.639Z,37.10
2023-05-16T07:28:37.583Z,37.30
2023-05-16T07:31:09.132Z,37.20
2023-05-16T07:33:39.134Z,36.80
2023-05-16T07:38:46.022Z,37.20
2023-05-16T07:41:16.223Z,37.20
2023-05-16T07:43:46.088Z,37.30
2023-05-16T07:46:16.274Z,37.30
2023-05-16T07:48:46.215Z,37.30
2023-05-16T07:51:16.286Z,37.50
2023-05-16T07:53:46.220Z,37.20
2023-05-16T07:56:16.687Z,37.30
2023-05-16T07:58:46.794Z,37.50
2023-05-16T08:01:17.133Z,37.70
2023-05-16T08:03:46.947Z,37.70
2023-05-16T08:06:17.622Z,37.50
2023-05-16T08:08:48.182Z,37.60
2023-05-16T08:11:18.586Z,37.70
2023-05-16T08:13:48.431Z,37.60
2023-05-16T08:16:18.701Z,37.50
2023-05-16T08:18:48.652Z,37.50
2023-05-16T08:21:18.943Z,37.40
2023-05-16T08:23:48.842Z,37.60
2023-05-16T08:26:20.031Z,37.70
2023-05-16T08:28:50.627Z,37.90
2023-05-16T08:31:20.490Z,37.80
2023-05-16T08:33:50.948Z,37.70
2023-05-16T08:36:21.924Z,37.80
2023-05-16T08:38:55.521Z,37.60
2023-05-16T08:41:25.635Z,37.50
2023-05-16T08:43:56.449Z,37.60
2023-05-16T08:46:27.952Z,37.40
2023-05-16T08:49:02.308Z,37.60
2023-05-16T08:51:38.813Z,37.60
2023-05-16T08:54:15.197Z,37.60
2023-05-16T08:56:46.516Z,37.20
2023-05-16T08:59:17.291Z,37.10
2023-05-16T09:01:47.649Z,37.20
2023-05-16T09:04:18.937Z,37.20
2023-05-16T09:06:50.210Z,37.10
2023-05-16T09:09:21.349Z,37.20
2023-05-16T09:11:51.642Z,37.20
2023-05-16T09:14:21.736Z,37.20
2023-05-16T09:17:10.813Z,37.10
2023-05-16T09:19:43.772Z,37.10
2023-05-16T09:22:17.746Z,37.30
2023-05-16T09:24:48.653Z,37.30
2023-05-16T09:27:18.631Z,37.20
2023-05-16T09:29:53.988Z,37.20
2023-05-16T09:32:24.266Z,37.20
2023-05-16T09:34:56.079Z,36.90
2023-05-16T09:37:26.443Z,36.90
2023-05-16T09:39:56.973Z,36.90
2023-05-16T09:42:28.217Z,36.90
2023-05-16T09:44:59.111Z,37.00
2023-05-16T09:47:30.720Z,36.90
2023-05-16T09:50:02.175Z,36.70
2023-05-16T09:52:32.829Z,36.60
2023-05-16T09:55:07.392Z,36.70
2023-05-16T09:57:42.457Z,36.80
2023-05-16T10:00:16.368Z,36.70
2023-05-16T10:02:46.862Z,36.70
2023-05-16T10:05:18.094Z,36.60
2023-05-16T10:07:48.596Z,36.50
2023-05-16T10:10:19.837Z,36.40
2023-05-16T10:12:50.618Z,36.50
2023-05-16T10:15:21.459Z,36.50
2023-05-16T10:17:55.293Z,36.50
2023-05-16T10:20:25.824Z,36.50
2023-05-16T10:22:58.436Z,36.40
2023-05-16T10:25:43.581Z,36.30
2023-05-16T10:28:14.793Z,36.20
2023-05-16T10:30:48.004Z,36.20
2023-05-16T10:33:19.910Z,36.10
2023-05-16T10:35:50.577Z,36.10
2023-05-16T10:38:22.673Z,36.00
2023-05-16T10:40:53.466Z,35.90
2023-05-16T10:43:35.193Z,35.90
2023-05-16T10:46:09.172Z,36.00
2023-05-16T10:48:41.541Z,35.90
2023-05-16T10:51:38.590Z,35.90
2023-05-16T10:54:11.828Z,35.80
2023-05-16T10:56:42.100Z,35.60
2023-05-16T10:59:31.965Z,35.50
2023-05-16T11:02:02.535Z,35.60
2023-05-16T11:04:53.277Z,35.50
2023-05-16T11:07:25.015Z,35.50
2023-05-16T11:10:18.254Z,35.40
2023-05-16T11:12:53.901Z,35.20
2023-05-16T11:15:30.314Z,35.30
2023-05-16T11:18:20.452Z,35.30
2023-05-16T11:20:54.776Z,35.40
2023-05-16T11:23:26.662Z,35.20
2023-05-16T11:25:59.227Z,35.20
2023-05-16T11:28:30.577Z,35.10
2023-05-16T11:31:01.462Z,35.10
2023-05-16T11:33:37.032Z,35.00
2023-05-16T11:38:45.534Z,34.80
2023-05-16T11:41:18.072Z,34.80
2023-05-16T11:43:48.756Z,34.60
2023-05-16T11:46:19.497Z,34.60
2023-05-16T11:48:50.340Z,34.60
2023-05-16T11:51:24.696Z,34.50
2023-05-16T11:53:55.334Z,34.50
2023-05-16T11:56:25.396Z,34.40
2023-05-16T11:58:55.913Z,34.30
2023-05-16T12:01:25.825Z,34.20
2023-05-16T12:04:00.207Z,34.20
2023-05-16T12:06:33.224Z,34.10
2023-05-16T12:09:11.984Z,34.10
2023-05-16T12:11:44.217Z,34.20
2023-05-16T12:14:15.954Z,34.20
2023-05-16T12:16:48.222Z,34.10
2023-05-16T12:19:19.069Z,34.00
2023-05-16T12:21:49.488Z,34.00
2023-05-16T12:24:19.842Z,34.00
2023-05-16T12:26:50.334Z,34.00
2023-05-16T12:29:27.636Z,33.80
2023-05-16T12:31:57.970Z,33.70
2023-05-16T12:34:34.895Z,33.70
2023-05-16T12:37:05.334Z,33.80
2023-05-16T12:39:40.978Z,33.70
2023-05-16T12:42:13.906Z,33.60
2023-05-16T12:44:48.299Z,33.60
2023-05-16T12:47:18.997Z,33.60
2023-05-16T12:49:50.518Z,33.50
2023-05-16T12:52:22.924Z,33.50
2023-05-16T12:54:54.238Z,33.40
2023-05-16T12:57:24.973Z,33.50
2023-05-16T12:59:55.374Z,33.40
2023-05-16T13:02:25.496Z,33.40
2023-05-16T13:04:56.277Z,33.40
2023-05-16T13:07:26.582Z,33.30
2023-05-16T13:09:56.877Z,33.30
2023-05-16T13:12:29.206Z,33.30
2023-05-16T13:15:02.315Z,33.30
2023-05-16T13:17:32.896Z,33.20
2023-05-16T13:20:03.408Z,33.20
2023-05-16T13:22:34.138Z,33.10
2023-05-16T13:25:06.331Z,33.10
2023-05-16T13:27:37.717Z,33.00
2023-05-16T13:30:09.980Z,32.90
2023-05-16T13:32:40.677Z,33.00
2023-05-16T13:35:12.315Z,33.00
2023-05-16T13:37:43.390Z,33.10
2023-05-16T13:40:14.024Z,33.10
2023-05-16T13:42:44.657Z,32.90
2023-05-16T13:45:14.921Z,32.90
2023-05-16T13:47:47.975Z,32.80
2023-05-16T13:50:18.576Z,32.90
2023-05-16T13:52:49.947Z,32.90
2023-05-16T13:55:20.861Z,32.80
2023-05-16T13:57:51.602Z,32.80
2023-05-16T14:02:55.561Z,32.80
2023-05-16T14:05:25.891Z,32.60
2023-05-16T14:07:56.535Z,32.70
2023-05-16T14:10:26.745Z,32.60
2023-05-16T14:12:57.346Z,32.40
2023-05-16T14:15:27.541Z,32.30
2023-05-16T14:17:57.855Z,32.30
2023-05-16T14:20:28.314Z,32.20
2023-05-16T14:22:58.411Z,32.10
2023-05-16T14:25:28.455Z,32.20
2023-05-16T14:27:58.578Z,32.10
2023-05-16T14:30:28.962Z,32.10
2023-05-16T14:33:00.815Z,32.20
2023-05-16T14:35:31.247Z,32.10
2023-05-16T14:38:01.208Z,32.10
2023-05-16T14:40:31.386Z,32.20
2023-05-16T14:43:05.586Z,32.00
2023-05-16T14:45:36.362Z,32.00
2023-05-16T14:48:08.607Z,32.00
2023-05-16T14:50:38.843Z,32.10
2023-05-16T14:53:08.898Z,32.20
2023-05-16T14:55:39.206Z,32.20
2023-05-16T14:58:09.109Z,32.00
2023-05-16T15:00:39.309Z,32.00
2023-05-16T15:03:09.349Z,31.90
2023-05-16T15:05:39.480Z,31.80
2023-05-16T15:08:09.367Z,31.80
2023-05-16T15:10:39.511Z,31.80
2023-05-16T15:13:09.442Z,31.60
2023-05-16T15:15:40.282Z,31.60
2023-05-16T15:18:12.040Z,31.50
2023-05-16T15:20:42.214Z,31.50
2023-05-16T15:23:12.390Z,31.50
2023-05-16T15:25:42.514Z,31.40
2023-05-16T15:28:12.519Z,31.30
2023-05-16T15:30:42.699Z,31.20
2023-05-16T15:33:12.537Z,31.20
2023-05-16T15:35:43.272Z,31.00
2023-05-16T15:38:13.406Z,31.10
2023-05-16T15:40:43.304Z,31.10
2023-05-16T15:43:13.558Z,31.10
2023-05-16T15:45:45.690Z,31.00
2023-05-16T15:48:16.049Z,30.70
2023-05-16T15:50:46.317Z,30.80
2023-05-16T15:53:16.320Z,30.80
2023-05-16T15:55:47.343Z,30.90
2023-05-16T15:58:18.623Z,30.80
2023-05-16T16:00:49.406Z,30.90
2023-05-16T16:03:20.487Z,31.00
2023-05-16T16:05:51.577Z,31.00
2023-05-16T16:08:23.003Z,30.90
2023-05-16T16:10:53.751Z,30.90
2023-05-16T16:13:24.463Z,31.00
2023-05-16T16:15:55.851Z,30.80
2023-05-16T16:18:25.988Z,30.80
2023-05-16T16:20:56.312Z,30.80
2023-05-16T16:23:26.883Z,30.80
2023-05-16T16:25:57.266Z,30.80
2023-05-16T16:28:29.326Z,30.70
2023-05-16T16:30:59.737Z,30.70
2023-05-16T16:33:29.732Z,30.60
2023-05-16T16:36:01.379Z,30.50
2023-05-16T16:38:34.433Z,30.50
2023-05-16T16:41:05.023Z,30.40
2023-05-16T16:43:35.175Z,30.50
2023-05-16T16:46:05.088Z,30.30
2023-05-16T16:48:36.280Z,30.30
2023-05-16T16:51:09.804Z,30.30
2023-05-16T16:53:40.394Z,30.20
2023-05-16T16:56:10.449Z,30.40
2023-05-16T16:58:40.976Z,30.50
2023-05-16T17:01:11.685Z,30.50
2023-05-16T17:03:42.112Z,30.40
2023-05-16T17:06:12.986Z,30.40
2023-05-16T17:08:43.050Z,30.40
2023-05-16T17:11:24.135Z,30.40
2023-05-16T17:14:00.652Z,30.40
2023-05-16T17:16:31.487Z,30.40
2023-05-16T17:19:05.266Z,30.40
2023-05-16T17:21:39.146Z,30.40
2023-05-16T17:24:09.749Z,30.30
2023-05-16T17:26:39.670Z,30.10
2023-05-16T17:29:10.041Z,30.00
2023-05-16T17:31:40.622Z,29.80
2023-05-16T17:34:10.560Z,29.70
2023-05-16T17:36:40.595Z,29.90
2023-05-16T17:40:09.558Z,29.90
2023-05-16T17:42:59.890Z,30.00
2023-05-16T17:45:30.569Z,29.90
2023-05-16T17:48:00.828Z,29.90
2023-05-16T17:50:32.035Z,30.10
2023-05-16T17:53:02.229Z,30.10
2023-05-16T17:55:32.354Z,30.10
2023-05-16T17:58:02.922Z,30.10
2023-05-16T18:00:33.111Z,30.10
2023-05-16T18:03:03.688Z,30.20
2023-05-16T18:05:33.884Z,30.00
2023-05-16T18:08:06.509Z,30.00
2023-05-16T18:10:50.935Z,29.90
2023-05-16T18:13:23.321Z,29.90
2023-05-16T18:15:54.186Z,29.70
2023-05-16T18:18:24.546Z,29.60
2023-05-16T18:20:55.880Z,29.80
2023-05-16T18:23:26.408Z,29.80
2023-05-16T18:25:56.335Z,29.90
2023-05-16T18:28:26.708Z,29.90
2023-05-16T18:30:56.809Z,29.90
2023-05-16T18:33:26.882Z,30.00
2023-05-16T18:35:59.105Z,30.00
2023-05-16T18:38:33.126Z,29.70
2023-05-16T18:41:04.206Z,29.60
2023-05-16T18:43:36.891Z,29.50
2023-05-16T18:46:07.111Z,29.30
2023-05-16T18:48:37.053Z,29.30
2023-05-16T18:51:07.265Z,29.20
2023-05-16T18:53:37.496Z,29.30
2023-05-16T18:56:07.485Z,29.30
2023-05-16T18:58:37.300Z,29.30
2023-05-16T19:01:07.345Z,29.30
2023-05-16T19:03:37.235Z,29.30
2023-05-16T19:06:07.809Z,29.40
2023-05-16T19:08:47.679Z,29.40
2023-05-16T19:11:19.572Z,29.50
2023-05-16T19:13:49.542Z,29.40
2023-05-16T19:16:19.394Z,29.40
2023-05-16T19:18:49.667Z,29.40
2023-05-16T19:21:19.614Z,29.40
2023-05-16T19:23:49.665Z,29.30
2023-05-16T19:26:19.618Z,29.30
2023-05-16T19:28:49.759Z,29.20
2023-05-16T19:31:19.780Z,29.00
2023-05-16T19:33:50.137Z,29.10
2023-05-16T19:36:20.027Z,29.10
2023-05-16T19:38:50.735Z,29.30
2023-05-16T19:41:23.071Z,29.00
2023-05-16T19:43:53.849Z,29.00
2023-05-16T19:46:23.737Z,28.80
2023-05-16T19:48:54.448Z,28.50
2023-05-16T19:51:40.174Z,28.70
2023-05-16T19:54:11.746Z,28.60
2023-05-16T19:56:41.574Z,28.80
2023-05-16T19:59:11.842Z,28.80
2023-05-16T20:04:18.318Z,28.60
2023-05-16T20:06:51.214Z,28.60
2023-05-16T20:09:21.397Z,28.70
2023-05-16T20:11:51.578Z,28.50
2023-05-16T20:14:21.566Z,28.50
2023-05-16T20:16:51.541Z,28.60
2023-05-16T20:19:21.902Z,28.60
2023-05-16T20:21:52.310Z,28.70
2023-05-16T20:24:22.232Z,28.60
2023-05-16T20:26:52.574Z,28.50
2023-05-16T20:29:22.475Z,28.80
2023-05-16T20:31:52.574Z,28.90
2023-05-16T20:34:22.702Z,28.70
2023-05-16T20:36:52.757Z,28.60
2023-05-16T20:39:23.092Z,28.50
2023-05-16T20:41:53.029Z,28.70
2023-05-16T20:44:23.862Z,28.80
2023-05-16T20:46:54.091Z,28.60
2023-05-16T20:49:23.886Z,28.30
2023-05-16T20:51:53.889Z,28.30
2023-05-16T20:54:23.788Z,28.40
2023-05-16T20:56:54.056Z,28.40
2023-05-16T20:59:23.960Z,28.30
2023-05-16T21:01:54.569Z,28.20
2023-05-16T21:04:24.523Z,28.20
2023-05-16T21:06:54.778Z,28.10
2023-05-16T21:09:24.672Z,27.90
2023-05-16T21:11:54.886Z,27.80
2023-05-16T21:14:24.777Z,27.70
2023-05-16T21:16:54.791Z,28.00
2023-05-16T21:19:24.782Z,28.00
2023-05-16T21:21:55.397Z,28.00
2023-05-16T21:24:25.571Z,28.10
2023-05-16T21:26:55.609Z,28.30
2023-05-16T21:29:25.341Z,28.30
2023-05-16T21:31:55.391Z,28.40
2023-05-16T21:34:25.237Z,28.40
2023-05-16T21:36:55.424Z,28.20
2023-05-16T21:39:25.714Z,28.00
2023-05-16T21:41:55.730Z,28.00
2023-05-16T21:44:25.489Z,28.10
2023-05-16T21:46:55.829Z,28.20
2023-05-16T21:49:25.947Z,28.20
2023-05-16T21:51:56.128Z,28.30
2023-05-16T21:54:25.999Z,28.20
2023-05-16T21:56:56.064Z,28.20
2023-05-16T21:59:25.915Z,28.20
2023-05-16T22:01:56.168Z,28.20
2023-05-16T22:04:26.179Z,28.10
2023-05-16T22:06:56.285Z,28.10
2023-05-16T22:09:28.929Z,28.20
2023-05-16T22:11:59.197Z,28.10
2023-05-16T22:14:29.112Z,28.10
2023-05-16T22:16:59.789Z,28.20
2023-05-16T22:19:29.894Z,27.90
2023-05-16T22:21:59.954Z,27.70
2023-05-16T22:24:29.880Z,27.70
2023-05-16T22:26:59.902Z,27.70
2023-05-16T22:29:29.768Z,27.60
2023-05-16T22:32:00.154Z,27.60
2023-05-16T22:34:29.964Z,27.60
2023-05-16T22:36:59.995Z,27.50
2023-05-16T22:39:29.904Z,27.50
2023-05-16T22:42:00.475Z,27.80
2023-05-16T22:44:30.877Z,27.80
2023-05-16T22:47:01.187Z,27.90
2023-05-16T22:49:31.354Z,27.80
2023-05-16T22:52:01.303Z,27.70
2023-05-16T22:54:31.248Z,27.70
2023-05-16T22:57:01.440Z,27.80
2023-05-16T22:59:31.295Z,27.80
2023-05-16T23:02:01.507Z,27.90
2023-05-16T23:04:31.313Z,27.80
2023-05-16T23:07:01.634Z,27.60
2023-05-16T23:09:31.504Z,27.50
2023-05-16T23:12:01.536Z,27.50
2023-05-16T23:14:31.456Z,27.60
2023-05-16T23:17:02.508Z,27.80
2023-05-16T23:19:32.749Z,27.80
2023-05-16T23:22:02.924Z,27.90
2023-05-16T23:24:33.187Z,27.90
2023-05-16T23:27:02.973Z,27.90
2023-05-16T23:29:33.019Z,27.80
2023-05-16T23:32:02.996Z,27.80
2023-05-16T23:34:33.115Z,27.90
2023-05-16T23:37:03.112Z,27.90
2023-05-16T23:39:33.091Z,28.00
2023-05-16T23:42:03.224Z,27.90
2023-05-16T23:44:34.958Z,27.90
2023-05-16T23:47:05.133Z,27.90
2023-05-16T23:49:35.031Z,27.90
2023-05-16T23:52:07.396Z,27.90
2023-05-16T23:54:37.615Z,28.00
2023-05-16T23:57:07.649Z,28.00
2023-05-16T23:59:37.874Z,28.00
